createdAt,value
2019-04-22T00:02:06.012Z,41.67
2019-04-22T00:05:01.086Z,41.49
2019-04-22T00:08:01.647Z,41.64
2019-04-22T00:10:56.911Z,42.24
2019-04-22T00:13:47.494Z,42.22
2019-04-22T00:16:45.435Z,41.67
2019-04-22T00:22:20.548Z,41.43
2019-04-22T00:25:10.211Z,40.64
2019-04-22T00:30:36.131Z,39.03
2019-04-22T00:33:29.426Z,36.65
2019-04-22T00:36:16.403Z,36.19
2019-04-22T00:39:08.860Z,36.15
2019-04-22T00:41:57.067Z,36.22
2019-04-22T00:44:46.975Z,36.19
2019-04-22T00:47:38.055Z,36.12
2019-04-22T00:50:23.575Z,36.03
2019-04-22T00:53:19.674Z,36.18
2019-04-22T00:58:56.570Z,36.86
2019-04-22T01:01:47.120Z,37.11
2019-04-22T01:04:40.629Z,37.42
2019-04-22T01:07:25.378Z,37.78
2019-04-22T01:10:19.718Z,37.91
2019-04-22T01:13:04.782Z,38.50
2019-04-22T01:16:01.182Z,38.60
2019-04-22T01:18:42.315Z,38.49
2019-04-22T01:21:36.985Z,38.82
2019-04-22T01:24:16.847Z,39.89
2019-04-22T01:27:02.903Z,39.85
2019-04-22T01:29:51.475Z,39.75
2019-04-22T01:32:34.023Z,40.15
2019-04-22T01:35:31.146Z,39.52
2019-04-22T01:38:19.008Z,40.31
2019-04-22T01:41:26.638Z,40.77
2019-04-22T01:44:14.358Z,41.25
2019-04-22T01:47:00.230Z,41.16
2019-04-22T01:49:46.215Z,40.57
2019-04-22T01:52:41.549Z,40.88
2019-04-22T01:58:10.880Z,42.50
2019-04-22T02:01:04.918Z,42.84
2019-04-22T02:03:59.587Z,42.08
2019-04-22T02:06:42.175Z,43.04
2019-04-22T02:09:49.669Z,43.13
2019-04-22T02:15:13.815Z,42.28
2019-04-22T02:18:01.708Z,42.77
2019-04-22T02:20:48.799Z,43.07
2019-04-22T02:26:31.298Z,43.17
2019-04-22T02:29:26.700Z,43.50
2019-04-22T02:32:24.800Z,43.88
2019-04-22T02:35:23.997Z,44.63
2019-04-22T02:37:48.117Z,43.98
2019-04-22T02:40:56.282Z,43.56
2019-04-22T02:43:49.203Z,43.51
2019-04-22T02:46:41.292Z,44.10
2019-04-22T02:49:18.726Z,44.51
2019-04-22T02:51:52.138Z,44.18
2019-04-22T03:00:34.583Z,43.69
2019-04-22T03:03:41.403Z,44.02
2019-04-22T03:06:16.502Z,42.85
2019-04-22T03:08:53.781Z,43.62
2019-04-22T03:11:50.033Z,43.89
2019-04-22T03:14:30.635Z,43.98
2019-04-22T03:17:22.093Z,43.15
2019-04-22T03:23:13.690Z,41.81
2019-04-22T03:28:49.979Z,43.16
2019-04-22T03:40:30.397Z,44.47
2019-04-22T03:45:51.674Z,44.15
2019-04-22T03:49:05.967Z,42.68
2019-04-22T03:51:54.485Z,41.09
2019-04-22T03:54:39.902Z,41.91
2019-04-22T04:00:21.688Z,42.26
2019-04-22T04:11:38.159Z,41.04
2019-04-22T04:14:18.195Z,41.20
2019-04-22T04:17:02.380Z,41.09
2019-04-22T04:20:10.695Z,41.55
2019-04-22T04:22:53.713Z,41.85
2019-04-22T04:28:47.188Z,42.11
2019-04-22T04:31:22.270Z,41.96
2019-04-22T04:36:54.586Z,42.87
2019-04-22T04:39:43.400Z,43.50
2019-04-22T04:45:40.537Z,43.70
2019-04-22T04:48:09.629Z,44.03
2019-04-22T04:53:52.124Z,44.47
2019-04-22T04:59:41.707Z,41.10
2019-04-22T05:02:19.875Z,41.43
2019-04-22T05:07:51.948Z,40.93
2019-04-22T05:13:33.412Z,40.63
2019-04-22T05:16:34.518Z,40.88
2019-04-22T05:21:53.405Z,40.64
2019-04-22T05:33:01.389Z,38.63
2019-04-22T05:35:57.933Z,37.77
2019-04-22T05:38:49.499Z,37.42
2019-04-22T05:41:39.575Z,36.63
2019-04-22T05:44:30.864Z,35.04
2019-04-22T05:47:14.684Z,34.65
2019-04-22T05:50:02.356Z,32.84
2019-04-22T05:52:51.499Z,32.76
2019-04-22T05:58:38.443Z,33.76
2019-04-22T06:01:43.530Z,32.76
2019-04-22T06:04:11.506Z,32.74
2019-04-22T06:07:00.507Z,33.17
2019-04-22T06:09:55.765Z,33.21
2019-04-22T06:12:35.678Z,33.44
2019-04-22T06:15:30.129Z,34.41
2019-04-22T06:18:22.783Z,35.05
2019-04-22T06:21:11.439Z,36.29
2019-04-22T06:24:07.741Z,35.83
2019-04-22T06:29:30.140Z,35.43
2019-04-22T06:35:23.271Z,34.13
2019-04-22T06:41:07.332Z,35.51
2019-04-22T06:43:44.614Z,35.29
2019-04-22T06:46:34.617Z,34.32
2019-04-22T06:49:23.884Z,34.21
2019-04-22T06:52:17.046Z,32.92
2019-04-22T06:55:05.982Z,32.12
2019-04-22T06:57:52.388Z,31.85
2019-04-22T07:00:42.976Z,30.37
2019-04-22T07:03:45.820Z,30.22
2019-04-22T07:06:23.556Z,30.14
2019-04-22T07:12:02.439Z,31.09
2019-04-22T07:14:49.010Z,31.12
2019-04-22T07:17:37.953Z,30.86
2019-04-22T07:20:24.214Z,31.12
2019-04-22T07:23:24.845Z,31.12
2019-04-22T07:26:06.071Z,29.20
2019-04-22T07:28:49.033Z,28.78
2019-04-22T07:31:42.795Z,27.69
2019-04-22T07:34:33.334Z,27.10
2019-04-22T07:37:29.710Z,25.97
2019-04-22T07:40:09.828Z,27.55
2019-04-22T07:42:57.507Z,27.22
2019-04-22T07:45:48.903Z,26.99
2019-04-22T07:48:45.239Z,27.43
2019-04-22T07:51:32.716Z,28.05
2019-04-22T07:54:16.305Z,28.98
2019-04-22T07:57:12.080Z,27.46
2019-04-22T07:59:58.979Z,26.14
2019-04-22T08:02:55.461Z,25.96
2019-04-22T08:08:26.099Z,25.25
2019-04-22T08:11:22.131Z,25.21
2019-04-22T08:13:58.894Z,26.78
2019-04-22T08:16:53.315Z,27.11
2019-04-22T08:19:44.081Z,26.80
2019-04-22T08:22:25.973Z,26.60
2019-04-22T08:25:16.718Z,26.85
2019-04-22T08:28:13.312Z,26.40
2019-04-22T08:31:01.957Z,25.91
2019-04-22T08:33:46.575Z,26.31
2019-04-22T08:36:40.811Z,25.60
2019-04-22T08:39:35.865Z,26.12
2019-04-22T08:42:17.738Z,25.92
2019-04-22T08:45:09.609Z,25.98
2019-04-22T08:47:51.247Z,25.99
2019-04-22T08:50:44.246Z,26.04
2019-04-22T08:53:32.983Z,27.13
2019-04-22T08:56:29.553Z,27.72
2019-04-22T09:01:59.653Z,29.06
2019-04-22T09:04:48.075Z,29.46
2019-04-22T09:07:44.753Z,29.17
2019-04-22T09:10:33.517Z,28.67
2019-04-22T09:13:14.305Z,28.75
2019-04-22T09:16:10.368Z,28.82
2019-04-22T09:18:54.265Z,28.90
2019-04-22T09:21:53.217Z,28.39
2019-04-22T09:24:39.067Z,28.76
2019-04-22T09:27:37.035Z,28.03
2019-04-22T09:30:16.903Z,27.92
2019-04-22T09:33:08.229Z,28.38
2019-04-22T09:35:52.000Z,28.09
2019-04-22T09:41:33.450Z,27.51
2019-04-22T09:44:14.881Z,27.64
2019-04-22T09:47:08.024Z,28.22
2019-04-22T09:52:50.075Z,26.68
2019-04-22T09:55:34.548Z,26.81
2019-04-22T09:58:23.638Z,26.90
2019-04-22T10:01:23.841Z,26.43
2019-04-22T10:04:06.437Z,26.07
2019-04-22T10:06:57.429Z,26.02
2019-04-22T10:12:37.081Z,27.39
2019-04-22T10:15:25.109Z,28.46
2019-04-22T10:18:20.333Z,28.86
2019-04-22T10:21:00.994Z,27.48
2019-04-22T10:23:54.820Z,27.33
2019-04-22T10:29:38.588Z,26.78
2019-04-22T10:32:17.770Z,26.91
2019-04-22T10:35:11.133Z,27.61
2019-04-22T10:37:54.405Z,26.25
2019-04-22T10:40:42.831Z,26.90
2019-04-22T10:43:30.594Z,26.44
2019-04-22T10:46:18.179Z,26.56
2019-04-22T10:49:06.427Z,24.56
2019-04-22T10:51:54.937Z,24.46
2019-04-22T10:54:43.287Z,23.38
2019-04-22T10:57:31.864Z,22.35
2019-04-22T11:00:19.853Z,22.86
2019-04-22T11:03:08.438Z,23.41
2019-04-22T11:05:57.100Z,24.13
2019-04-22T11:08:52.230Z,25.24
2019-04-22T11:11:45.518Z,24.89
2019-04-22T11:14:23.333Z,24.77
2019-04-22T11:17:11.444Z,24.16
2019-04-22T11:19:59.636Z,25.43
2019-04-22T11:22:48.826Z,25.88
2019-04-22T11:25:36.680Z,26.81
2019-04-22T11:28:25.517Z,27.32
2019-04-22T11:31:14.536Z,27.04
2019-04-22T11:34:02.847Z,27.04
2019-04-22T11:36:50.628Z,26.89
2019-04-22T11:39:38.652Z,26.58
2019-04-22T11:42:28.038Z,27.26
2019-04-22T11:45:17.387Z,26.95
2019-04-22T11:48:05.557Z,26.83
2019-04-22T11:50:53.716Z,26.72
2019-04-22T11:53:42.788Z,27.59
2019-04-22T11:56:31.296Z,27.32
2019-04-22T11:59:20.563Z,26.93
2019-04-22T12:02:08.990Z,26.91
2019-04-22T12:04:58.130Z,27.56
2019-04-22T12:07:46.978Z,28.03
2019-04-22T12:10:41.122Z,27.77
2019-04-22T12:13:24.219Z,27.50
2019-04-22T12:16:11.703Z,27.39
2019-04-22T12:18:59.256Z,26.59
2019-04-22T12:21:49.131Z,25.79
2019-04-22T12:24:38.378Z,26.07
2019-04-22T12:27:28.751Z,25.92
2019-04-22T12:30:16.760Z,26.15
2019-04-22T12:33:07.387Z,25.90
2019-04-22T12:35:54.765Z,26.02
2019-04-22T12:38:42.517Z,26.23
2019-04-22T12:41:31.115Z,26.60
2019-04-22T12:44:20.140Z,26.59
2019-04-22T12:47:09.855Z,26.52
2019-04-22T12:50:11.857Z,26.77
2019-04-22T12:52:54.725Z,26.79
2019-04-22T12:55:35.643Z,25.72
2019-04-22T12:58:23.612Z,25.84
2019-04-22T13:01:11.209Z,26.21
2019-04-22T13:04:05.774Z,26.33
2019-04-22T13:06:49.870Z,26.53
2019-04-22T13:09:38.982Z,26.64
2019-04-22T13:12:26.922Z,27.02
2019-04-22T13:15:15.986Z,27.41
2019-04-22T13:18:13.531Z,27.06
2019-04-22T13:20:52.933Z,26.77
2019-04-22T13:23:41.293Z,26.52
2019-04-22T13:26:29.748Z,24.97
2019-04-22T13:29:17.271Z,24.68
2019-04-22T13:32:05.023Z,25.31
2019-04-22T13:34:57.513Z,25.59
2019-04-22T13:37:43.332Z,24.59
2019-04-22T13:40:30.911Z,25.11
2019-04-22T13:43:18.778Z,25.50
2019-04-22T13:46:08.075Z,25.35
2019-04-22T13:49:23.967Z,24.78
2019-04-22T13:54:59.890Z,24.97
2019-04-22T13:57:42.618Z,25.17
2019-04-22T14:00:16.487Z,25.03
2019-04-22T14:03:30.826Z,24.92
2019-04-22T14:06:20.577Z,25.47
2019-04-22T14:09:09.518Z,25.97
2019-04-22T14:12:03.357Z,26.02
2019-04-22T14:14:49.042Z,25.96
2019-04-22T14:17:36.829Z,26.08
2019-04-22T14:20:27.762Z,26.64
2019-04-22T14:23:15.943Z,26.95
2019-04-22T14:26:05.228Z,27.51
2019-04-22T14:28:53.465Z,27.20
2019-04-22T14:31:42.480Z,27.42
2019-04-22T14:34:30.316Z,27.47
2019-04-22T14:37:18.626Z,28.16
2019-04-22T14:40:09.493Z,28.01
2019-04-22T14:43:21.383Z,28.18
2019-04-22T14:46:17.672Z,27.91
2019-04-22T14:48:55.717Z,27.84
2019-04-22T14:51:47.059Z,27.87
2019-04-22T14:54:31.054Z,27.85
2019-04-22T14:57:03.514Z,27.99
2019-04-22T14:59:51.023Z,28.57
2019-04-22T15:02:39.516Z,28.45
2019-04-22T15:05:28.262Z,28.62
2019-04-22T15:08:17.300Z,28.57
2019-04-22T15:11:06.258Z,28.96
2019-04-22T15:13:54.129Z,28.62
2019-04-22T15:16:53.043Z,28.55
2019-04-22T15:19:59.785Z,28.46
2019-04-22T15:22:48.405Z,28.68
2019-04-22T15:25:36.749Z,28.49
2019-04-22T15:28:24.425Z,28.71
2019-04-22T15:31:11.606Z,29.14
2019-04-22T15:34:00.572Z,29.41
2019-04-22T15:36:48.531Z,29.50
2019-04-22T15:39:36.453Z,29.38
2019-04-22T15:42:28.688Z,29.18
2019-04-22T15:45:15.040Z,29.71
2019-04-22T15:48:02.352Z,29.52
2019-04-22T15:50:50.746Z,29.54
2019-04-22T15:53:39.889Z,28.94
2019-04-22T15:56:28.456Z,29.15
2019-04-22T15:59:35.070Z,28.86
2019-04-22T16:02:06.610Z,28.87
2019-04-22T16:04:56.719Z,28.59
2019-04-22T16:07:45.794Z,28.70
2019-04-22T16:10:33.819Z,28.74
2019-04-22T16:13:26.448Z,28.83
2019-04-22T16:16:10.644Z,28.20
2019-04-22T16:18:58.585Z,28.64
2019-04-22T16:21:53.431Z,28.46
2019-04-22T16:24:54.145Z,27.71
2019-04-22T16:27:42.784Z,28.48
2019-04-22T16:30:31.036Z,28.15
2019-04-22T16:33:19.348Z,28.53
2019-04-22T16:36:08.860Z,28.71
2019-04-22T16:38:57.150Z,28.96
2019-04-22T16:41:46.560Z,29.18
2019-04-22T16:44:34.519Z,28.42
2019-04-22T16:47:23.769Z,28.41
2019-04-22T16:50:11.734Z,28.62
2019-04-22T16:52:59.746Z,28.76
2019-04-22T16:55:47.174Z,28.87
2019-04-22T16:58:36.841Z,28.80
2019-04-22T17:01:52.805Z,28.07
2019-04-22T17:04:51.194Z,27.99
2019-04-22T17:07:38.636Z,28.17
2019-04-22T17:10:27.937Z,27.94
2019-04-22T17:13:20.727Z,28.32
2019-04-22T17:16:06.896Z,28.63
2019-04-22T17:18:56.347Z,29.48
2019-04-22T17:21:45.363Z,30.03
2019-04-22T17:24:33.030Z,30.28
2019-04-22T17:27:20.648Z,30.07
2019-04-22T17:30:10.455Z,30.30
2019-04-22T17:32:58.800Z,30.19
2019-04-22T17:35:48.837Z,30.52
2019-04-22T17:38:45.442Z,30.42
2019-04-22T17:41:44.950Z,30.05
2019-04-22T17:44:42.319Z,29.79
2019-04-22T17:47:41.398Z,29.94
2019-04-22T17:50:37.926Z,30.06
2019-04-22T17:53:25.992Z,30.30
2019-04-22T17:56:13.743Z,30.81
2019-04-22T17:59:03.928Z,31.10
2019-04-22T18:01:54.008Z,30.28
2019-04-22T18:04:23.407Z,30.72
2019-04-22T18:13:20.468Z,30.90
2019-04-22T18:16:02.354Z,31.40
2019-04-22T18:18:53.288Z,30.72
2019-04-22T18:21:39.311Z,31.43
2019-04-22T18:24:20.004Z,32.08
2019-04-22T18:27:30.448Z,34.32
2019-04-22T18:29:59.994Z,34.20
2019-04-22T18:32:58.587Z,34.80
2019-04-22T18:35:39.378Z,35.26
2019-04-22T18:38:46.813Z,33.79
2019-04-22T18:41:18.199Z,34.00
2019-04-22T18:44:17.557Z,34.17
2019-04-22T18:47:01.284Z,34.06
2019-04-22T18:49:46.250Z,33.95
2019-04-22T18:52:49.930Z,33.46
2019-04-22T18:55:55.557Z,33.13
2019-04-22T18:58:39.388Z,31.46
2019-04-22T19:01:19.731Z,32.83
2019-04-22T19:04:16.450Z,32.08
2019-04-22T19:07:25.479Z,31.78
2019-04-22T19:10:17.269Z,32.00
2019-04-22T19:13:31.477Z,31.28
2019-04-22T19:15:54.089Z,29.91
2019-04-22T19:18:44.532Z,29.87
2019-04-22T19:21:19.421Z,30.29
2019-04-22T19:24:08.998Z,30.47
2019-04-22T19:27:02.214Z,30.98
2019-04-22T19:29:57.706Z,31.15
2019-04-22T19:32:46.398Z,31.03
2019-04-22T19:35:28.340Z,30.37
2019-04-22T19:38:12.241Z,30.77
2019-04-22T19:41:14.557Z,30.68
2019-04-22T19:44:04.060Z,30.90
2019-04-22T19:47:11.817Z,30.77
2019-04-22T19:49:48.116Z,31.23
2019-04-22T19:52:28.833Z,31.14
2019-04-22T19:55:18.282Z,31.27
2019-04-22T19:58:02.802Z,30.98
2019-04-22T20:01:13.182Z,30.71
2019-04-22T20:04:31.452Z,31.12
2019-04-22T20:07:14.174Z,30.81
2019-04-22T20:10:04.683Z,31.46
2019-04-22T20:12:50.060Z,31.38
2019-04-22T20:15:33.293Z,31.70
2019-04-22T20:21:26.773Z,32.27
2019-04-22T20:24:01.575Z,32.46
2019-04-22T20:27:10.836Z,32.59
2019-04-22T20:29:49.463Z,33.51
2019-04-22T20:32:40.277Z,33.65
2019-04-22T20:35:37.431Z,34.20
2019-04-22T20:38:16.859Z,34.11
2019-04-22T20:41:05.649Z,34.74
2019-04-22T20:43:57.694Z,35.25
2019-04-22T20:46:44.704Z,35.38
2019-04-22T20:49:35.273Z,35.08
2019-04-22T20:55:07.979Z,35.10
2019-04-22T20:58:02.672Z,34.96
2019-04-22T21:00:40.341Z,35.11
2019-04-22T21:03:29.406Z,35.48
2019-04-22T21:06:27.471Z,34.77
2019-04-22T21:09:18.549Z,35.52
2019-04-22T21:12:02.330Z,35.64
2019-04-22T21:15:02.511Z,35.46
2019-04-22T21:17:44.843Z,35.97
2019-04-22T21:20:37.790Z,35.47
2019-04-22T21:23:18.827Z,35.82
2019-04-22T21:26:13.573Z,35.42
2019-04-22T21:29:05.476Z,35.83
2019-04-22T21:31:56.064Z,35.99
2019-04-22T21:34:48.541Z,35.49
2019-04-22T21:37:38.546Z,35.63
2019-04-22T21:40:23.013Z,35.03
2019-04-22T21:43:13.657Z,35.18
2019-04-22T21:46:04.179Z,34.57
2019-04-22T21:48:46.276Z,33.86
2019-04-22T21:51:43.256Z,34.72
2019-04-22T21:54:34.673Z,34.85
2019-04-22T21:57:57.219Z,35.62
2019-04-22T22:03:43.005Z,35.81
2019-04-22T22:06:19.630Z,35.81
2019-04-22T22:09:23.257Z,35.83
2019-04-22T22:12:02.655Z,35.76
2019-04-22T22:14:56.083Z,34.76
2019-04-22T22:17:42.268Z,33.65
2019-04-22T22:20:45.260Z,33.40
2019-04-22T22:23:31.837Z,32.98
2019-04-22T22:26:09.568Z,32.79
2019-04-22T22:29:08.869Z,32.54
2019-04-22T22:32:02.839Z,32.27
2019-04-22T22:34:47.573Z,32.15
2019-04-22T22:37:21.896Z,31.84
2019-04-22T22:40:09.175Z,31.76
2019-04-22T22:42:53.621Z,33.04
2019-04-22T22:45:48.803Z,35.33
2019-04-22T22:48:52.021Z,33.99
2019-04-22T22:51:51.857Z,34.94
2019-04-22T22:54:33.001Z,34.23
2019-04-22T22:57:25.826Z,33.65
2019-04-22T23:00:03.886Z,34.11
2019-04-22T23:03:23.338Z,34.99
2019-04-22T23:05:53.234Z,34.86
2019-04-22T23:08:38.259Z,33.99
2019-04-22T23:11:34.390Z,34.41
2019-04-22T23:14:17.634Z,34.90
2019-04-22T23:16:49.491Z,34.49
2019-04-22T23:19:32.638Z,34.85
2019-04-22T23:22:30.232Z,33.50
2019-04-22T23:25:33.250Z,32.45
2019-04-22T23:28:30.068Z,34.28
2019-04-22T23:31:36.831Z,33.08
2019-04-22T23:34:32.960Z,32.54
2019-04-22T23:37:27.749Z,32.63
2019-04-22T23:40:32.585Z,32.81
2019-04-22T23:43:23.769Z,32.60
2019-04-22T23:46:04.214Z,33.05
2019-04-22T23:48:51.501Z,33.42
2019-04-22T23:51:51.727Z,34.25
2019-04-22T23:54:38.983Z,34.59
2019-04-22T23:57:26.352Z,34.94
